sensor_id;sensor_type;location;lat;lon;timestamp;pressure;altitude;pressure_sealevel;temperature;humidity
55171;BME280;41060;47.510;8.680;2023-04-25T00:01:18;96552.88;;;13.43;43.75
55171;BME280;41060;47.510;8.680;2023-04-25T00:03:45;96552.03;;;13.08;45.16
55171;BME280;41060;47.510;8.680;2023-04-25T00:06:15;96546.06;;;13.06;45.11
55171;BME280;41060;47.510;8.680;2023-04-25T00:08:44;96551.09;;;12.99;45.38
55171;BME280;41060;47.510;8.680;2023-04-25T00:11:10;96550.19;;;12.90;45.44
55171;BME280;41060;47.510;8.680;2023-04-25T00:13:39;96550.63;;;12.86;45.68
55171;BME280;41060;47.510;8.680;2023-04-25T00:16:06;96562.31;;;12.75;46.34
55171;BME280;41060;47.510;8.680;2023-04-25T00:18:33;96551.97;;;12.72;45.32
55171;BME280;41060;47.510;8.680;2023-04-25T00:21:00;96545.63;;;12.83;44.98
55171;BME280;41060;47.510;8.680;2023-04-25T00:23:27;96539.41;;;12.92;44.68
55171;BME280;41060;47.510;8.680;2023-04-25T00:25:55;96535.75;;;12.93;44.35
55171;BME280;41060;47.510;8.680;2023-04-25T00:28:22;96526.88;;;13.02;44.57
55171;BME280;41060;47.510;8.680;2023-04-25T00:30:49;96534.59;;;13.05;44.44
55171;BME280;41060;47.510;8.680;2023-04-25T00:33:16;96540.16;;;13.12;44.32
55171;BME280;41060;47.510;8.680;2023-04-25T00:35:43;96535.97;;;13.09;44.67
55171;BME280;41060;47.510;8.680;2023-04-25T00:38:10;96542.31;;;12.98;45.10
55171;BME280;41060;47.510;8.680;2023-04-25T00:40:36;96543.50;;;12.86;45.26
55171;BME280;41060;47.510;8.680;2023-04-25T00:43:05;96544.75;;;12.64;45.36
55171;BME280;41060;47.510;8.680;2023-04-25T00:45:32;96543.88;;;12.74;45.03
55171;BME280;41060;47.510;8.680;2023-04-25T00:48:03;96546.47;;;12.56;45.51
55171;BME280;41060;47.510;8.680;2023-04-25T00:50:32;96557.78;;;12.31;46.18
55171;BME280;41060;47.510;8.680;2023-04-25T00:53:00;96557.00;;;12.11;46.98
55171;BME280;41060;47.510;8.680;2023-04-25T00:55:27;96556.41;;;11.70;48.28
55171;BME280;41060;47.510;8.680;2023-04-25T00:57:54;96544.63;;;11.82;47.49
55171;BME280;41060;47.510;8.680;2023-04-25T01:00:22;96502.78;;;11.76;46.86
55171;BME280;41060;47.510;8.680;2023-04-25T01:02:49;96555.31;;;12.10;46.54
55171;BME280;41060;47.510;8.680;2023-04-25T01:05:16;96552.19;;;11.87;46.98
55171;BME280;41060;47.510;8.680;2023-04-25T01:07:44;96553.56;;;11.81;46.63
55171;BME280;41060;47.510;8.680;2023-04-25T01:10:10;96561.56;;;11.53;46.49
55171;BME280;41060;47.510;8.680;2023-04-25T01:12:38;96554.44;;;11.43;45.74
55171;BME280;41060;47.510;8.680;2023-04-25T01:15:05;96563.50;;;11.50;47.12
55171;BME280;41060;47.510;8.680;2023-04-25T01:17:33;96566.47;;;11.57;46.95
55171;BME280;41060;47.510;8.680;2023-04-25T01:20:03;96557.94;;;11.54;45.64
55171;BME280;41060;47.510;8.680;2023-04-25T01:22:31;96549.41;;;11.79;45.63
55171;BME280;41060;47.510;8.680;2023-04-25T01:24:58;96534.94;;;12.10;44.74
55171;BME280;41060;47.510;8.680;2023-04-25T01:27:25;96518.09;;;12.29;44.76
55171;BME280;41060;47.510;8.680;2023-04-25T01:29:53;96519.28;;;12.44;44.21
55171;BME280;41060;47.510;8.680;2023-04-25T01:32:25;96491.91;;;12.16;44.51
55171;BME280;41060;47.510;8.680;2023-04-25T01:34:53;96523.31;;;12.48;43.79
55171;BME280;41060;47.510;8.680;2023-04-25T01:37:19;96531.78;;;11.97;45.15
55171;BME280;41060;47.510;8.680;2023-04-25T01:39:47;96520.44;;;12.05;45.08
55171;BME280;41060;47.510;8.680;2023-04-25T01:42:16;96533.94;;;12.21;44.83
55171;BME280;41060;47.510;8.680;2023-04-25T01:44:42;96534.53;;;12.15;44.70
55171;BME280;41060;47.510;8.680;2023-04-25T01:47:09;96530.13;;;11.86;45.72
55171;BME280;41060;47.510;8.680;2023-04-25T01:49:36;96530.41;;;11.74;45.38
55171;BME280;41060;47.510;8.680;2023-04-25T01:52:03;96517.72;;;11.68;45.68
55171;BME280;41060;47.510;8.680;2023-04-25T01:54:29;96515.19;;;11.76;45.18
55171;BME280;41060;47.510;8.680;2023-04-25T01:56:58;96529.13;;;11.87;44.23
55171;BME280;41060;47.510;8.680;2023-04-25T01:59:25;96525.88;;;12.03;44.10
55171;BME280;41060;47.510;8.680;2023-04-25T02:01:51;96528.22;;;12.16;43.94
55171;BME280;41060;47.510;8.680;2023-04-25T02:04:18;96524.00;;;12.23;43.93
55171;BME280;41060;47.510;8.680;2023-04-25T02:06:45;96522.13;;;12.33;43.71
55171;BME280;41060;47.510;8.680;2023-04-25T02:09:11;96519.34;;;12.35;43.67
55171;BME280;41060;47.510;8.680;2023-04-25T02:11:38;96521.56;;;12.39;43.43
55171;BME280;41060;47.510;8.680;2023-04-25T02:14:08;96517.22;;;12.38;43.49
55171;BME280;41060;47.510;8.680;2023-04-25T02:16:34;96512.91;;;12.37;43.38
55171;BME280;41060;47.510;8.680;2023-04-25T02:19:02;96514.56;;;12.38;43.63
55171;BME280;41060;47.510;8.680;2023-04-25T02:21:29;96516.91;;;12.41;43.72
55171;BME280;41060;47.510;8.680;2023-04-25T02:23:56;96508.97;;;12.04;45.20
55171;BME280;41060;47.510;8.680;2023-04-25T02:26:23;96514.34;;;11.85;45.90
55171;BME280;41060;47.510;8.680;2023-04-25T02:28:50;96506.09;;;11.88;45.82
55171;BME280;41060;47.510;8.680;2023-04-25T02:31:18;96504.66;;;12.03;45.30
55171;BME280;41060;47.510;8.680;2023-04-25T02:33:45;96503.94;;;12.11;44.76
55171;BME280;41060;47.510;8.680;2023-04-25T02:36:12;96503.94;;;12.11;44.71
55171;BME280;41060;47.510;8.680;2023-04-25T02:38:39;96507.88;;;12.07;44.50
55171;BME280;41060;47.510;8.680;2023-04-25T02:41:06;96505.31;;;11.59;45.63
55171;BME280;41060;47.510;8.680;2023-04-25T02:43:33;96519.06;;;11.25;45.69
55171;BME280;41060;47.510;8.680;2023-04-25T02:45:59;96511.78;;;11.37;45.44
55171;BME280;41060;47.510;8.680;2023-04-25T02:48:28;96506.72;;;11.53;44.91
55171;BME280;41060;47.510;8.680;2023-04-25T02:50:54;96505.44;;;11.67;44.51
55171;BME280;41060;47.510;8.680;2023-04-25T02:53:21;96511.44;;;11.78;44.05
55171;BME280;41060;47.510;8.680;2023-04-25T02:55:48;96504.59;;;11.66;44.40
55171;BME280;41060;47.510;8.680;2023-04-25T02:58:14;96498.19;;;11.69;44.56
55171;BME280;41060;47.510;8.680;2023-04-25T03:00:41;96496.63;;;11.76;44.39
55171;BME280;41060;47.510;8.680;2023-04-25T03:03:11;96494.38;;;11.81;44.70
55171;BME280;41060;47.510;8.680;2023-04-25T03:05:39;96495.94;;;11.74;44.59
55171;BME280;41060;47.510;8.680;2023-04-25T03:08:05;96491.88;;;11.79;44.23
55171;BME280;41060;47.510;8.680;2023-04-25T03:10:32;96485.88;;;11.77;44.27
55171;BME280;41060;47.510;8.680;2023-04-25T03:12:59;96482.41;;;11.77;44.44
55171;BME280;41060;47.510;8.680;2023-04-25T03:15:27;96481.28;;;11.79;44.08
55171;BME280;41060;47.510;8.680;2023-04-25T03:17:54;96488.41;;;11.79;44.00
55171;BME280;41060;47.510;8.680;2023-04-25T03:20:21;96483.94;;;11.70;43.73
55171;BME280;41060;47.510;8.680;2023-04-25T03:22:49;96483.59;;;11.45;44.11
55171;BME280;41060;47.510;8.680;2023-04-25T03:25:16;96483.00;;;11.52;44.24
55171;BME280;41060;47.510;8.680;2023-04-25T03:27:42;96475.75;;;11.54;44.27
55171;BME280;41060;47.510;8.680;2023-04-25T03:30:09;96472.25;;;11.53;44.18
55171;BME280;41060;47.510;8.680;2023-04-25T03:32:36;96474.22;;;11.51;44.16
55171;BME280;41060;47.510;8.680;2023-04-25T03:35:03;96442.66;;;11.11;44.68
55171;BME280;41060;47.510;8.680;2023-04-25T03:37:31;96471.09;;;11.19;45.03
55171;BME280;41060;47.510;8.680;2023-04-25T03:39:59;96478.59;;;11.14;45.14
55171;BME280;41060;47.510;8.680;2023-04-25T03:42:25;96472.34;;;10.95;45.41
55171;BME280;41060;47.510;8.680;2023-04-25T03:44:52;96478.19;;;10.70;45.53
55171;BME280;41060;47.510;8.680;2023-04-25T03:47:19;96480.56;;;10.73;45.30
55171;BME280;41060;47.510;8.680;2023-04-25T03:49:46;96477.72;;;10.55;45.65
55171;BME280;41060;47.510;8.680;2023-04-25T03:52:12;96480.44;;;10.15;46.41
55171;BME280;41060;47.510;8.680;2023-04-25T03:54:39;96474.13;;;10.07;46.70
55171;BME280;41060;47.510;8.680;2023-04-25T03:57:07;96475.31;;;10.33;45.92
55171;BME280;41060;47.510;8.680;2023-04-25T03:59:33;96428.53;;;10.24;45.65
55171;BME280;41060;47.510;8.680;2023-04-25T04:02:01;96477.78;;;10.65;45.48
55171;BME280;41060;47.510;8.680;2023-04-25T04:04:27;96474.44;;;10.73;45.77
55171;BME280;41060;47.510;8.680;2023-04-25T04:06:54;96420.19;;;10.48;45.37
55171;BME280;41060;47.510;8.680;2023-04-25T04:09:21;96443.22;;;10.76;45.84
55171;BME280;41060;47.510;8.680;2023-04-25T04:11:47;96473.06;;;10.97;45.98
55171;BME280;41060;47.510;8.680;2023-04-25T04:14:15;96475.53;;;10.99;46.33
55171;BME280;41060;47.510;8.680;2023-04-25T04:16:42;96470.94;;;11.01;46.19
55171;BME280;41060;47.510;8.680;2023-04-25T04:19:09;96469.72;;;11.05;45.99
55171;BME280;41060;47.510;8.680;2023-04-25T04:21:35;96476.69;;;10.96;46.62
55171;BME280;41060;47.510;8.680;2023-04-25T04:24:03;96466.34;;;11.03;46.68
55171;BME280;41060;47.510;8.680;2023-04-25T04:26:32;96455.63;;;11.04;47.35
55171;BME280;41060;47.510;8.680;2023-04-25T04:28:59;96463.84;;;11.21;47.14
55171;BME280;41060;47.510;8.680;2023-04-25T04:31:29;96455.72;;;11.32;46.57
55171;BME280;41060;47.510;8.680;2023-04-25T04:33:55;96448.88;;;11.29;46.19
55171;BME280;41060;47.510;8.680;2023-04-25T04:36:22;96458.94;;;11.26;46.60
55171;BME280;41060;47.510;8.680;2023-04-25T04:38:51;96446.94;;;11.22;46.24
55171;BME280;41060;47.510;8.680;2023-04-25T04:41:19;96439.44;;;11.17;46.24
55171;BME280;41060;47.510;8.680;2023-04-25T04:43:47;96444.41;;;11.30;45.69
55171;BME280;41060;47.510;8.680;2023-04-25T04:46:14;96435.63;;;11.29;45.78
55171;BME280;41060;47.510;8.680;2023-04-25T04:48:42;96437.88;;;11.34;45.38
55171;BME280;41060;47.510;8.680;2023-04-25T04:51:09;96445.81;;;11.34;45.39
55171;BME280;41060;47.510;8.680;2023-04-25T04:53:36;96440.66;;;11.23;45.65
55171;BME280;41060;47.510;8.680;2023-04-25T04:56:03;96445.38;;;11.29;45.50
55171;BME280;41060;47.510;8.680;2023-04-25T04:58:30;96453.50;;;11.27;45.75
55171;BME280;41060;47.510;8.680;2023-04-25T05:00:57;96461.47;;;10.89;47.01
55171;BME280;41060;47.510;8.680;2023-04-25T05:03:24;96465.63;;;10.53;47.47
55171;BME280;41060;47.510;8.680;2023-04-25T05:05:51;96459.59;;;10.51;47.42
55171;BME280;41060;47.510;8.680;2023-04-25T05:08:18;96452.38;;;10.62;47.12
55171;BME280;41060;47.510;8.680;2023-04-25T05:10:45;96451.72;;;10.80;46.81
55171;BME280;41060;47.510;8.680;2023-04-25T05:13:12;96463.09;;;10.51;47.48
55171;BME280;41060;47.510;8.680;2023-04-25T05:15:39;96454.31;;;10.31;47.81
55171;BME280;41060;47.510;8.680;2023-04-25T05:18:05;96455.53;;;10.27;47.86
55171;BME280;41060;47.510;8.680;2023-04-25T05:20:32;96459.94;;;10.17;47.79
55171;BME280;41060;47.510;8.680;2023-04-25T05:23:00;96448.56;;;10.26;48.43
55171;BME280;41060;47.510;8.680;2023-04-25T05:25:27;96446.94;;;10.45;47.87
55171;BME280;41060;47.510;8.680;2023-04-25T05:27:53;96456.25;;;10.49;47.67
55171;BME280;41060;47.510;8.680;2023-04-25T05:30:20;96449.13;;;10.40;47.49
55171;BME280;41060;47.510;8.680;2023-04-25T05:32:47;96451.94;;;10.48;47.49
55171;BME280;41060;47.510;8.680;2023-04-25T05:35:13;96449.44;;;10.56;47.43
55171;BME280;41060;47.510;8.680;2023-04-25T05:37:40;96455.03;;;10.53;47.62
55171;BME280;41060;47.510;8.680;2023-04-25T05:40:09;96453.34;;;10.52;48.89
55171;BME280;41060;47.510;8.680;2023-04-25T05:42:36;96461.81;;;10.36;49.74
55171;BME280;41060;47.510;8.680;2023-04-25T05:45:04;96460.81;;;10.27;49.86
55171;BME280;41060;47.510;8.680;2023-04-25T05:47:30;96465.13;;;10.28;48.97
55171;BME280;41060;47.510;8.680;2023-04-25T05:49:57;96454.03;;;10.44;48.77
55171;BME280;41060;47.510;8.680;2023-04-25T05:52:24;96459.34;;;10.54;48.90
55171;BME280;41060;47.510;8.680;2023-04-25T05:54:51;96455.91;;;10.73;48.39
55171;BME280;41060;47.510;8.680;2023-04-25T05:57:23;96461.34;;;10.90;48.05
55171;BME280;41060;47.510;8.680;2023-04-25T05:59:51;96442.38;;;11.04;48.01
55171;BME280;41060;47.510;8.680;2023-04-25T06:02:21;96420.31;;;11.14;47.89
55171;BME280;41060;47.510;8.680;2023-04-25T06:04:49;96445.25;;;11.40;47.48
55171;BME280;41060;47.510;8.680;2023-04-25T06:07:19;96448.22;;;11.27;48.78
55171;BME280;41060;47.510;8.680;2023-04-25T06:09:46;96446.66;;;11.25;49.20
55171;BME280;41060;47.510;8.680;2023-04-25T06:12:12;96453.94;;;11.03;50.25
55171;BME280;41060;47.510;8.680;2023-04-25T06:14:42;96440.00;;;11.01;49.73
55171;BME280;41060;47.510;8.680;2023-04-25T06:17:09;96445.56;;;11.18;49.69
55171;BME280;41060;47.510;8.680;2023-04-25T06:19:38;96448.09;;;11.09;49.97
55171;BME280;41060;47.510;8.680;2023-04-25T06:22:07;96443.34;;;11.13;49.81
55171;BME280;41060;47.510;8.680;2023-04-25T06:24:33;96420.88;;;11.07;49.02
55171;BME280;41060;47.510;8.680;2023-04-25T06:27:00;96440.97;;;11.20;47.25
55171;BME280;41060;47.510;8.680;2023-04-25T06:29:27;96453.78;;;11.15;46.76
55171;BME280;41060;47.510;8.680;2023-04-25T06:31:55;96471.78;;;11.01;45.79
55171;BME280;41060;47.510;8.680;2023-04-25T06:34:22;96496.47;;;10.92;45.87
55171;BME280;41060;47.510;8.680;2023-04-25T06:36:49;96505.78;;;10.67;46.66
55171;BME280;41060;47.510;8.680;2023-04-25T06:39:16;96505.31;;;10.62;48.31
55171;BME280;41060;47.510;8.680;2023-04-25T06:41:42;96520.06;;;9.75;50.87
55171;BME280;41060;47.510;8.680;2023-04-25T06:44:09;96497.94;;;9.14;52.82
55171;BME280;41060;47.510;8.680;2023-04-25T06:46:36;96517.38;;;9.45;53.11
55171;BME280;41060;47.510;8.680;2023-04-25T06:49:04;96519.88;;;9.67;51.85
55171;BME280;41060;47.510;8.680;2023-04-25T06:51:31;96507.44;;;9.58;52.39
55171;BME280;41060;47.510;8.680;2023-04-25T06:53:58;96510.22;;;9.57;52.95
55171;BME280;41060;47.510;8.680;2023-04-25T06:56:25;96504.16;;;9.96;53.15
55171;BME280;41060;47.510;8.680;2023-04-25T06:58:52;96489.34;;;9.84;53.28
55171;BME280;41060;47.510;8.680;2023-04-25T07:01:18;96507.69;;;9.76;53.57
55171;BME280;41060;47.510;8.680;2023-04-25T07:03:45;96508.22;;;9.70;53.47
55171;BME280;41060;47.510;8.680;2023-04-25T07:06:13;96515.38;;;9.37;54.14
55171;BME280;41060;47.510;8.680;2023-04-25T07:08:40;96502.75;;;9.41;55.02
55171;BME280;41060;47.510;8.680;2023-04-25T07:11:06;96505.22;;;9.84;53.96
55171;BME280;41060;47.510;8.680;2023-04-25T07:13:33;96499.34;;;10.11;53.01
55171;BME280;41060;47.510;8.680;2023-04-25T07:16:00;96500.81;;;9.94;53.66
55171;BME280;41060;47.510;8.680;2023-04-25T07:18:26;96510.91;;;9.79;53.81
55171;BME280;41060;47.510;8.680;2023-04-25T07:20:54;96523.63;;;9.65;54.04
55171;BME280;41060;47.510;8.680;2023-04-25T07:23:22;96502.50;;;9.65;53.96
55171;BME280;41060;47.510;8.680;2023-04-25T07:25:51;96502.44;;;9.55;54.59
55171;BME280;41060;47.510;8.680;2023-04-25T07:28:18;96525.47;;;9.94;54.20
55171;BME280;41060;47.510;8.680;2023-04-25T07:30:45;96508.34;;;9.99;53.72
55171;BME280;41060;47.510;8.680;2023-04-25T07:33:11;96510.28;;;9.97;53.61
55171;BME280;41060;47.510;8.680;2023-04-25T07:35:39;96521.63;;;10.18;53.83
55171;BME280;41060;47.510;8.680;2023-04-25T07:38:05;96518.47;;;10.24;53.11
55171;BME280;41060;47.510;8.680;2023-04-25T07:40:34;96522.81;;;10.34;52.85
55171;BME280;41060;47.510;8.680;2023-04-25T07:43:01;96498.66;;;10.09;53.36
55171;BME280;41060;47.510;8.680;2023-04-25T07:45:28;96515.03;;;10.43;53.47
55171;BME280;41060;47.510;8.680;2023-04-25T07:47:54;96522.97;;;10.43;53.72
55171;BME280;41060;47.510;8.680;2023-04-25T07:50:21;96529.13;;;10.13;53.77
55171;BME280;41060;47.510;8.680;2023-04-25T07:52:48;96536.41;;;10.20;54.09
55171;BME280;41060;47.510;8.680;2023-04-25T07:55:15;96537.00;;;10.24;53.59
55171;BME280;41060;47.510;8.680;2023-04-25T07:57:43;96542.97;;;10.16;53.35
55171;BME280;41060;47.510;8.680;2023-04-25T08:00:11;96540.91;;;9.99;53.50
55171;BME280;41060;47.510;8.680;2023-04-25T08:02:37;96532.00;;;10.30;53.34
55171;BME280;41060;47.510;8.680;2023-04-25T08:05:05;96543.75;;;10.07;53.80
55171;BME280;41060;47.510;8.680;2023-04-25T08:07:33;96535.66;;;10.39;54.20
55171;BME280;41060;47.510;8.680;2023-04-25T08:10:00;96543.19;;;10.44;54.02
55171;BME280;41060;47.510;8.680;2023-04-25T08:12:27;96552.97;;;10.53;53.40
55171;BME280;41060;47.510;8.680;2023-04-25T08:14:55;96548.03;;;10.88;53.23
55171;BME280;41060;47.510;8.680;2023-04-25T08:17:21;96560.03;;;10.43;52.75
55171;BME280;41060;47.510;8.680;2023-04-25T08:19:48;96554.19;;;10.09;53.68
55171;BME280;41060;47.510;8.680;2023-04-25T08:22:15;96547.22;;;10.08;53.89
55171;BME280;41060;47.510;8.680;2023-04-25T08:24:41;96564.97;;;9.96;54.38
55171;BME280;41060;47.510;8.680;2023-04-25T08:27:08;96581.00;;;9.94;53.89
55171;BME280;41060;47.510;8.680;2023-04-25T08:29:36;96576.13;;;10.00;54.17
55171;BME280;41060;47.510;8.680;2023-04-25T08:32:04;96582.00;;;10.33;53.61
55171;BME280;41060;47.510;8.680;2023-04-25T08:34:31;96578.75;;;10.20;54.36
55171;BME280;41060;47.510;8.680;2023-04-25T08:36:58;96577.84;;;10.41;53.75
55171;BME280;41060;47.510;8.680;2023-04-25T08:39:24;96599.16;;;10.09;54.16
55171;BME280;41060;47.510;8.680;2023-04-25T08:41:52;96542.00;;;9.45;54.56
55171;BME280;41060;47.510;8.680;2023-04-25T08:44:19;96598.47;;;9.86;55.62
55171;BME280;41060;47.510;8.680;2023-04-25T08:46:46;96593.03;;;10.08;54.34
55171;BME280;41060;47.510;8.680;2023-04-25T08:49:18;96609.03;;;10.07;54.10
55171;BME280;41060;47.510;8.680;2023-04-25T08:51:46;96584.59;;;9.52;54.33
55171;BME280;41060;47.510;8.680;2023-04-25T08:54:15;96615.38;;;9.94;54.77
55171;BME280;41060;47.510;8.680;2023-04-25T08:56:44;96611.28;;;10.42;53.37
55171;BME280;41060;47.510;8.680;2023-04-25T08:59:11;96575.31;;;9.78;53.06
55171;BME280;41060;47.510;8.680;2023-04-25T09:01:38;96630.59;;;10.02;53.54
55171;BME280;41060;47.510;8.680;2023-04-25T09:04:05;96641.81;;;9.94;53.73
55171;BME280;41060;47.510;8.680;2023-04-25T09:06:34;96642.13;;;9.80;53.34
55171;BME280;41060;47.510;8.680;2023-04-25T09:09:02;96646.63;;;10.10;53.14
55171;BME280;41060;47.510;8.680;2023-04-25T09:11:30;96641.41;;;9.99;53.19
55171;BME280;41060;47.510;8.680;2023-04-25T09:14:11;96643.28;;;9.87;53.61
55171;BME280;41060;47.510;8.680;2023-04-25T09:17:02;96664.50;;;9.97;54.74
55171;BME280;41060;47.510;8.680;2023-04-25T09:19:31;96664.25;;;9.79;55.67
55171;BME280;41060;47.510;8.680;2023-04-25T09:22:01;96670.06;;;9.94;55.65
55171;BME280;41060;47.510;8.680;2023-04-25T09:24:35;96653.25;;;10.25;54.19
55171;BME280;41060;47.510;8.680;2023-04-25T09:27:04;96670.94;;;10.55;54.33
55171;BME280;41060;47.510;8.680;2023-04-25T09:29:31;96665.22;;;10.50;53.05
55171;BME280;41060;47.510;8.680;2023-04-25T09:32:17;96676.47;;;10.43;52.88
55171;BME280;41060;47.510;8.680;2023-04-25T09:34:46;96680.44;;;10.27;52.33
55171;BME280;41060;47.510;8.680;2023-04-25T09:37:19;96681.16;;;10.29;52.89
55171;BME280;41060;47.510;8.680;2023-04-25T09:39:51;96676.75;;;10.70;51.57
55171;BME280;41060;47.510;8.680;2023-04-25T09:42:18;96675.97;;;10.79;52.08
55171;BME280;41060;47.510;8.680;2023-04-25T09:44:48;96686.03;;;10.85;50.54
55171;BME280;41060;47.510;8.680;2023-04-25T09:47:15;96682.19;;;10.38;51.53
55171;BME280;41060;47.510;8.680;2023-04-25T09:49:43;96684.09;;;10.87;50.33
55171;BME280;41060;47.510;8.680;2023-04-25T09:52:14;96688.59;;;10.96;49.99
55171;BME280;41060;47.510;8.680;2023-04-25T09:54:42;96689.91;;;10.81;50.28
55171;BME280;41060;47.510;8.680;2023-04-25T09:57:11;96695.75;;;10.54;51.43
55171;BME280;41060;47.510;8.680;2023-04-25T09:59:42;96689.56;;;10.65;49.97
55171;BME280;41060;47.510;8.680;2023-04-25T10:02:11;96685.41;;;10.72;49.91
55171;BME280;41060;47.510;8.680;2023-04-25T10:04:38;96701.16;;;11.04;50.57
55171;BME280;41060;47.510;8.680;2023-04-25T10:07:06;96678.75;;;11.18;50.15
55171;BME280;41060;47.510;8.680;2023-04-25T10:09:36;96694.72;;;10.97;49.58
55171;BME280;41060;47.510;8.680;2023-04-25T10:12:07;96689.97;;;10.91;50.34
55171;BME280;41060;47.510;8.680;2023-04-25T10:14:34;96694.19;;;11.03;50.01
55171;BME280;41060;47.510;8.680;2023-04-25T10:17:01;96690.53;;;10.64;49.61
55171;BME280;41060;47.510;8.680;2023-04-25T10:19:29;96693.53;;;10.29;50.81
55171;BME280;41060;47.510;8.680;2023-04-25T10:22:02;96694.66;;;10.57;50.23
55171;BME280;41060;47.510;8.680;2023-04-25T10:24:30;96700.56;;;11.00;49.03
55171;BME280;41060;47.510;8.680;2023-04-25T10:26:57;96683.22;;;11.27;48.81
55171;BME280;41060;47.510;8.680;2023-04-25T10:29:26;96651.22;;;10.90;50.13
55171;BME280;41060;47.510;8.680;2023-04-25T10:31:53;96697.31;;;11.37;47.82
55171;BME280;41060;47.510;8.680;2023-04-25T10:34:24;96661.50;;;11.42;47.26
55171;BME280;41060;47.510;8.680;2023-04-25T10:36:52;96691.66;;;12.09;46.93
55171;BME280;41060;47.510;8.680;2023-04-25T10:39:27;96682.47;;;11.94;45.38
55171;BME280;41060;47.510;8.680;2023-04-25T10:41:56;96686.38;;;11.99;46.01
55171;BME280;41060;47.510;8.680;2023-04-25T10:44:27;96690.97;;;12.16;46.59
55171;BME280;41060;47.510;8.680;2023-04-25T10:46:55;96691.63;;;12.18;46.60
55171;BME280;41060;47.510;8.680;2023-04-25T10:49:30;96685.28;;;12.48;44.64
55171;BME280;41060;47.510;8.680;2023-04-25T10:52:11;96701.72;;;12.15;45.13
55171;BME280;41060;47.510;8.680;2023-04-25T10:54:43;96667.22;;;11.67;45.49
55171;BME280;41060;47.510;8.680;2023-04-25T10:57:29;96705.63;;;11.72;44.12
55171;BME280;41060;47.510;8.680;2023-04-25T11:00:11;96703.59;;;12.42;44.28
55171;BME280;41060;47.510;8.680;2023-04-25T11:02:41;96703.16;;;12.56;44.74
55171;BME280;41060;47.510;8.680;2023-04-25T11:05:16;96700.09;;;12.51;43.83
55171;BME280;41060;47.510;8.680;2023-04-25T11:07:50;96709.38;;;12.27;43.85
55171;BME280;41060;47.510;8.680;2023-04-25T11:10:18;96705.03;;;12.26;43.89
55171;BME280;41060;47.510;8.680;2023-04-25T11:12:45;96719.28;;;12.35;44.11
55171;BME280;41060;47.510;8.680;2023-04-25T11:15:13;96718.03;;;12.39;44.07
55171;BME280;41060;47.510;8.680;2023-04-25T11:17:41;96712.38;;;12.61;44.48
55171;BME280;41060;47.510;8.680;2023-04-25T11:20:08;96707.59;;;12.65;43.64
55171;BME280;41060;47.510;8.680;2023-04-25T11:22:37;96714.13;;;12.24;44.76
55171;BME280;41060;47.510;8.680;2023-04-25T11:25:05;96707.63;;;12.55;44.40
55171;BME280;41060;47.510;8.680;2023-04-25T11:27:32;96708.34;;;12.48;46.07
55171;BME280;41060;47.510;8.680;2023-04-25T11:30:09;96702.88;;;12.59;43.16
55171;BME280;41060;47.510;8.680;2023-04-25T11:32:40;96693.09;;;13.06;42.49
55171;BME280;41060;47.510;8.680;2023-04-25T11:35:08;96694.22;;;12.94;42.12
55171;BME280;41060;47.510;8.680;2023-04-25T11:37:35;96692.22;;;12.69;43.89
55171;BME280;41060;47.510;8.680;2023-04-25T11:40:03;96704.94;;;12.65;43.85
55171;BME280;41060;47.510;8.680;2023-04-25T11:42:31;96693.84;;;12.79;44.04
55171;BME280;41060;47.510;8.680;2023-04-25T11:45:01;96691.03;;;12.90;44.57
55171;BME280;41060;47.510;8.680;2023-04-25T11:47:29;96693.94;;;13.24;43.41
55171;BME280;41060;47.510;8.680;2023-04-25T11:49:58;96693.16;;;13.59;41.73
55171;BME280;41060;47.510;8.680;2023-04-25T11:52:35;96689.09;;;13.20;40.91
55171;BME280;41060;47.510;8.680;2023-04-25T11:55:07;96690.78;;;13.38;41.87
55171;BME280;41060;47.510;8.680;2023-04-25T11:57:34;96699.38;;;13.32;41.34
55171;BME280;41060;47.510;8.680;2023-04-25T12:00:12;96705.69;;;13.04;41.15
55171;BME280;41060;47.510;8.680;2023-04-25T12:02:41;96701.09;;;12.87;40.70
55171;BME280;41060;47.510;8.680;2023-04-25T12:05:11;96712.47;;;12.70;41.21
55171;BME280;41060;47.510;8.680;2023-04-25T12:07:38;96722.66;;;12.84;40.31
55171;BME280;41060;47.510;8.680;2023-04-25T12:10:05;96701.59;;;13.00;39.31
55171;BME280;41060;47.510;8.680;2023-04-25T12:12:34;96728.38;;;12.79;39.58
55171;BME280;41060;47.510;8.680;2023-04-25T12:15:11;96728.19;;;12.53;39.02
55171;BME280;41060;47.510;8.680;2023-04-25T12:17:42;96732.72;;;12.14;40.58
55171;BME280;41060;47.510;8.680;2023-04-25T12:20:14;96742.31;;;12.44;40.57
55171;BME280;41060;47.510;8.680;2023-04-25T12:22:42;96745.38;;;12.49;40.39
55171;BME280;41060;47.510;8.680;2023-04-25T12:25:11;96753.78;;;12.25;39.97
55171;BME280;41060;47.510;8.680;2023-04-25T12:27:38;96762.03;;;12.13;41.67
55171;BME280;41060;47.510;8.680;2023-04-25T12:30:08;96758.38;;;12.33;41.07
55171;BME280;41060;47.510;8.680;2023-04-25T12:32:36;96760.50;;;12.39;41.62
55171;BME280;41060;47.510;8.680;2023-04-25T12:35:03;96763.41;;;13.12;41.20
55171;BME280;41060;47.510;8.680;2023-04-25T12:37:31;96760.66;;;13.03;40.92
55171;BME280;41060;47.510;8.680;2023-04-25T12:39:58;96760.97;;;13.28;40.75
55171;BME280;41060;47.510;8.680;2023-04-25T12:42:24;96750.25;;;13.37;38.87
55171;BME280;41060;47.510;8.680;2023-04-25T12:44:51;96765.97;;;13.58;38.91
55171;BME280;41060;47.510;8.680;2023-04-25T12:47:18;96758.47;;;13.44;39.84
55171;BME280;41060;47.510;8.680;2023-04-25T12:49:45;96749.47;;;13.55;38.38
55171;BME280;41060;47.510;8.680;2023-04-25T12:52:12;96745.69;;;13.30;38.31
55171;BME280;41060;47.510;8.680;2023-04-25T12:54:40;96753.72;;;13.48;39.63
55171;BME280;41060;47.510;8.680;2023-04-25T12:57:06;96747.69;;;13.91;39.61
55171;BME280;41060;47.510;8.680;2023-04-25T12:59:33;96759.75;;;13.67;38.83
55171;BME280;41060;47.510;8.680;2023-04-25T13:02:00;96755.63;;;13.55;40.55
55171;BME280;41060;47.510;8.680;2023-04-25T13:04:27;96743.56;;;13.96;44.32
55171;BME280;41060;47.510;8.680;2023-04-25T13:06:54;96741.72;;;14.24;40.22